createdAt,value
2018-07-11T00:05:03.091Z,16.23
2018-07-11T00:10:06.126Z,13.00
2018-07-11T00:15:09.284Z,15.50
2018-07-11T00:20:12.364Z,15.27
2018-07-11T00:25:15.728Z,18.83
2018-07-11T00:30:18.849Z,17.03
2018-07-11T00:35:21.956Z,16.70
2018-07-11T00:40:25.265Z,24.70
2018-07-11T00:45:28.743Z,16.87
2018-07-11T00:50:31.849Z,17.10
2018-07-11T00:55:36.293Z,14.70
2018-07-11T01:00:39.354Z,26.07
2018-07-11T01:05:42.673Z,23.90
2018-07-11T01:10:45.812Z,21.23
2018-07-11T01:15:49.383Z,17.63
2018-07-11T01:20:52.821Z,16.87
2018-07-11T01:25:56.140Z,27.93
2018-07-11T01:30:59.194Z,22.07
2018-07-11T01:36:02.471Z,20.37
2018-07-11T01:41:05.701Z,23.03
2018-07-11T01:46:08.804Z,17.50
2018-07-11T01:51:11.891Z,23.17
2018-07-11T01:56:14.994Z,21.23
2018-07-11T02:01:18.252Z,27.83
2018-07-11T02:06:21.404Z,25.03
2018-07-11T02:11:24.556Z,25.47
2018-07-11T02:16:27.848Z,24.57
2018-07-11T02:21:31.005Z,28.10
2018-07-11T02:26:34.364Z,26.50
2018-07-11T02:31:37.432Z,30.13
2018-07-11T02:36:40.565Z,29.03
2018-07-11T02:41:43.609Z,27.80
2018-07-11T02:46:52.492Z,32.30
2018-07-11T02:51:55.758Z,28.50
2018-07-11T02:56:59.051Z,29.10
2018-07-11T03:02:02.129Z,29.63
2018-07-11T03:07:06.047Z,29.40
2018-07-11T03:12:09.576Z,34.40
2018-07-11T03:17:12.625Z,26.20
2018-07-11T03:22:16.071Z,31.40
2018-07-11T03:27:19.418Z,27.53
2018-07-11T03:32:22.630Z,30.57
2018-07-11T03:37:25.678Z,32.70
2018-07-11T03:42:28.855Z,26.60
2018-07-11T03:47:31.924Z,25.73
2018-07-11T03:52:35.151Z,27.07
2018-07-11T03:57:38.466Z,33.47
2018-07-11T04:02:41.764Z,26.87
2018-07-11T04:07:44.831Z,25.10
2018-07-11T04:12:54.808Z,27.00
2018-07-11T04:17:57.988Z,25.13
2018-07-11T04:23:01.032Z,24.30
2018-07-11T04:28:04.304Z,24.33
2018-07-11T04:33:07.397Z,26.27
2018-07-11T04:38:10.683Z,26.80
2018-07-11T04:43:14.109Z,19.13
2018-07-11T04:48:19.930Z,18.57
2018-07-11T04:53:26.125Z,19.77
2018-07-11T04:58:30.065Z,22.33
2018-07-11T05:03:33.071Z,20.57
2018-07-11T05:08:36.040Z,19.83
2018-07-11T05:13:39.288Z,19.50
2018-07-11T05:18:42.251Z,21.47
2018-07-11T05:23:45.203Z,19.93
2018-07-11T05:28:48.607Z,16.87
2018-07-11T05:33:51.817Z,16.80
2018-07-11T05:38:55.038Z,15.90
2018-07-11T05:43:58.639Z,18.97
2018-07-11T05:49:01.648Z,13.60
2018-07-11T05:54:04.641Z,14.77
2018-07-11T05:59:07.804Z,12.50
2018-07-11T06:04:10.831Z,11.90
2018-07-11T06:09:14.097Z,13.03
2018-07-11T06:14:17.220Z,18.17
2018-07-11T06:19:20.391Z,15.13
2018-07-11T06:24:23.404Z,14.33
2018-07-11T06:29:26.449Z,13.83
2018-07-11T06:34:29.436Z,12.03
2018-07-11T06:39:32.426Z,12.63
2018-07-11T06:44:35.640Z,11.83
2018-07-11T06:49:38.681Z,11.67
2018-07-11T06:54:41.930Z,10.80
2018-07-11T06:59:45.141Z,7.93
2018-07-11T07:04:48.125Z,7.90
2018-07-11T07:09:51.205Z,8.53
2018-07-11T07:14:54.216Z,6.77
2018-07-11T07:19:57.199Z,6.57
2018-07-11T07:25:00.152Z,6.50
2018-07-11T07:30:03.373Z,12.67
2018-07-11T07:35:06.407Z,8.60
2018-07-11T07:40:09.476Z,7.93
2018-07-11T07:45:12.519Z,6.20
2018-07-11T07:50:16.337Z,7.27
2018-07-11T07:55:19.411Z,7.17
2018-07-11T08:00:22.535Z,7.07
2018-07-11T08:05:25.579Z,6.40
2018-07-11T08:10:28.644Z,8.40
2018-07-11T08:15:31.958Z,7.77
2018-07-11T08:20:35.251Z,4.80
2018-07-11T08:25:56.812Z,7.50
2018-07-11T08:31:45.004Z,10.83
2018-07-11T08:37:06.304Z,5.93
2018-07-11T08:44:30.428Z,5.90
2018-07-11T08:51:59.394Z,10.07
2018-07-11T08:57:48.324Z,9.33
2018-07-11T09:05:46.745Z,6.63
2018-07-11T09:15:10.125Z,7.47
2018-07-11T09:22:36.651Z,5.80
2018-07-11T09:27:39.668Z,4.67
2018-07-11T09:32:42.965Z,6.23
2018-07-11T09:37:46.000Z,3.97
2018-07-11T09:42:49.319Z,6.50
2018-07-11T09:47:52.552Z,3.50
2018-07-11T09:52:55.580Z,6.27
2018-07-11T09:57:58.844Z,4.73
2018-07-11T10:03:02.435Z,4.90
2018-07-11T10:08:08.319Z,4.83
2018-07-11T10:13:11.707Z,8.37
2018-07-11T10:18:14.688Z,6.27
2018-07-11T10:23:17.743Z,3.93
2018-07-11T10:28:21.177Z,4.10
2018-07-11T10:33:24.204Z,3.40
2018-07-11T10:38:27.387Z,3.60
2018-07-11T10:43:30.483Z,4.60
2018-07-11T10:48:34.021Z,3.73
2018-07-11T10:53:37.093Z,3.33
2018-07-11T10:58:40.081Z,5.73
2018-07-11T11:03:43.208Z,7.23
2018-07-11T11:08:47.263Z,4.53
2018-07-11T11:13:50.336Z,3.53
2018-07-11T11:18:53.377Z,4.73
2018-07-11T11:23:56.416Z,6.53
2018-07-11T11:28:59.455Z,4.80
2018-07-11T11:34:02.691Z,2.93
2018-07-11T11:39:05.750Z,3.27
2018-07-11T11:44:08.820Z,3.20
2018-07-11T11:49:12.021Z,5.23
2018-07-11T11:54:15.544Z,4.83
2018-07-11T11:59:18.638Z,6.20
2018-07-11T12:04:21.827Z,5.30
2018-07-11T12:09:24.820Z,4.37
2018-07-11T12:14:27.991Z,3.77
2018-07-11T12:19:31.279Z,5.93
2018-07-11T12:24:34.640Z,5.53
2018-07-11T12:29:37.918Z,4.90
2018-07-11T12:34:41.077Z,6.67
2018-07-11T12:39:44.888Z,8.10
2018-07-11T12:44:47.996Z,10.37
2018-07-11T12:49:51.182Z,6.30
2018-07-11T12:54:54.279Z,4.87
2018-07-11T12:59:57.748Z,8.37
2018-07-11T13:05:01.473Z,7.20
2018-07-11T13:10:04.486Z,6.50
2018-07-11T13:15:07.548Z,7.33
2018-07-11T13:20:10.822Z,4.60
2018-07-11T13:25:13.965Z,5.70
2018-07-11T13:30:17.196Z,5.50
2018-07-11T13:35:20.283Z,6.30
2018-07-11T13:40:23.492Z,6.00
2018-07-11T13:45:26.520Z,9.13
2018-07-11T13:50:30.969Z,5.00
2018-07-11T13:55:34.272Z,10.03
2018-07-11T14:00:37.540Z,12.50
2018-07-11T14:05:40.712Z,7.10
2018-07-11T14:10:43.955Z,8.03
2018-07-11T14:15:46.947Z,9.17
2018-07-11T14:20:49.938Z,12.50
2018-07-11T14:25:53.325Z,11.33
2018-07-11T14:30:56.496Z,9.30
2018-07-11T14:36:00.411Z,9.30
2018-07-11T14:41:03.468Z,13.37
2018-07-11T14:46:06.592Z,11.80
2018-07-11T14:51:10.171Z,6.63
2018-07-11T14:56:13.386Z,7.80
2018-07-11T15:01:16.401Z,9.80
2018-07-11T15:06:19.880Z,10.47
2018-07-11T15:11:23.380Z,8.47
2018-07-11T15:16:26.564Z,5.73
2018-07-11T15:21:29.504Z,6.23
2018-07-11T15:26:32.465Z,9.70
2018-07-11T15:31:35.620Z,6.27
2018-07-11T15:36:38.618Z,9.83
2018-07-11T15:41:41.939Z,12.67
2018-07-11T15:46:44.883Z,10.30
2018-07-11T15:51:48.860Z,7.20
2018-07-11T15:56:52.283Z,6.27
2018-07-11T16:01:56.632Z,13.20
2018-07-11T16:07:04.214Z,6.50
2018-07-11T16:12:07.437Z,10.03
2018-07-11T16:17:10.448Z,13.73
2018-07-11T16:22:13.666Z,8.23
2018-07-11T16:27:17.752Z,14.97
2018-07-11T16:32:20.992Z,10.33
2018-07-11T16:37:24.192Z,8.20
2018-07-11T16:42:27.268Z,9.43
2018-07-11T16:47:30.652Z,9.60
2018-07-11T16:52:34.020Z,14.63
2018-07-11T16:57:46.820Z,13.13
2018-07-11T17:02:58.964Z,13.30
2018-07-11T17:08:06.199Z,15.90
2018-07-11T17:13:16.480Z,13.93
2018-07-11T17:18:42.854Z,11.70
2018-07-11T17:23:52.192Z,13.33
2018-07-11T17:28:58.112Z,15.77
2018-07-11T17:34:01.293Z,14.23
2018-07-11T17:39:05.021Z,15.30
2018-07-11T17:44:08.400Z,16.97
2018-07-11T17:49:18.723Z,11.37
2018-07-11T17:54:26.829Z,16.03
2018-07-11T17:59:41.419Z,17.67
2018-07-11T18:06:00.217Z,21.00
2018-07-11T18:11:03.388Z,15.70
2018-07-11T18:18:19.110Z,13.03
2018-07-11T18:23:39.079Z,16.63
2018-07-11T18:32:03.666Z,17.80
2018-07-11T18:37:24.252Z,25.00
2018-07-11T18:42:52.626Z,25.00
2018-07-11T18:50:16.285Z,23.60
2018-07-11T18:55:40.952Z,21.27
2018-07-11T19:01:04.633Z,24.53
2018-07-11T19:06:35.076Z,23.27
2018-07-11T19:12:11.544Z,26.20
2018-07-11T19:17:26.899Z,29.90
2018-07-11T19:23:47.883Z,27.67
2018-07-11T19:29:01.477Z,29.43
2018-07-11T19:34:31.165Z,27.20
2018-07-11T19:41:59.785Z,21.03
2018-07-11T19:48:25.895Z,29.83
2018-07-11T19:54:02.441Z,23.40
2018-07-11T19:59:05.740Z,19.20
2018-07-11T20:04:09.859Z,16.90
2018-07-11T20:09:13.028Z,16.93
2018-07-11T20:14:16.248Z,16.63
2018-07-11T20:19:19.468Z,13.93
2018-07-11T20:24:22.811Z,25.93
2018-07-11T20:29:25.956Z,26.10
2018-07-11T20:34:29.233Z,25.10
2018-07-11T20:39:32.395Z,24.13
2018-07-11T20:44:35.960Z,29.73
2018-07-11T20:49:39.085Z,25.40
2018-07-11T20:54:42.136Z,27.37
2018-07-11T21:00:02.688Z,26.60
2018-07-11T21:06:03.349Z,22.73
2018-07-11T21:13:53.205Z,26.97
2018-07-11T21:19:04.607Z,25.60
2018-07-11T21:24:08.573Z,30.23
2018-07-11T21:29:11.708Z,33.33
2018-07-11T21:34:14.806Z,30.17
2018-07-11T21:39:17.960Z,35.20
2018-07-11T21:44:21.038Z,33.07
2018-07-11T21:49:24.172Z,30.87
2018-07-11T21:54:27.335Z,30.70
2018-07-11T21:59:30.545Z,31.40
2018-07-11T22:04:33.937Z,36.70
2018-07-11T22:09:36.952Z,32.20
2018-07-11T22:14:40.006Z,30.60
2018-07-11T22:19:41.480Z,30.03
2018-07-11T22:24:43.083Z,36.17
2018-07-11T22:29:44.513Z,25.00
2018-07-11T22:34:46.007Z,26.10
2018-07-11T22:39:47.701Z,26.90
2018-07-11T22:44:49.116Z,34.87
2018-07-11T22:49:56.372Z,32.10
2018-07-11T22:54:57.824Z,31.83
2018-07-11T22:59:59.283Z,28.57
2018-07-11T23:05:00.978Z,38.37
2018-07-11T23:10:02.640Z,37.93
2018-07-11T23:15:04.313Z,34.43
2018-07-11T23:20:05.894Z,36.00
2018-07-11T23:25:07.320Z,35.27
2018-07-11T23:30:08.748Z,37.77
2018-07-11T23:35:10.180Z,35.87
2018-07-11T23:40:11.602Z,40.30
2018-07-11T23:45:13.239Z,38.27
2018-07-11T23:50:14.892Z,38.47
2018-07-11T23:55:16.574Z,49.30
